Shenzhen Bao'an International Airport
ZGSZ : now visible

Airfield :











YOU CAN JOIN US ON...

 
LOGIN :

Register | Disclaimer

   EN    FR    IT 

 









Legend :    VFR   Marginal VFR   IFR   Intensive IFR   Very Intensive IFR
Visi :
Ceiling :
>= 8 km
>= 3000ft
5 to 8 km
1000 to 3000 ft
1500m to 5 km
500 to 1000 ft
800 to 1500m
200 to 500 ft
< 800m
< 200 ft
Symbols :   Thunderstorms  Fog  Heavy snow  Heavy precipitations  Wind > 20 kt






- Airport Elevation : 13 ft
- IATA code : SZX


ZGSZ - Shenzhen Bao'an International

CURRENT METAR :
  • 131100Z 34002MPS 9999 SCT050 26/19 Q1017 NOSIG

EXPIRED METARs :
  • 131000Z 34004MPS 9999 FEW040 27/19 Q1017 NOSIG
  • 130900Z 33004MPS CAVOK 28/18 Q1016 NOSIG

TAF TAF ZGSZ
Valid from the 13 at 12:00 until the 14 at 12:00 UTC


130921Z 1312/1412 03006G11MPS 6000 FEW040 TX27/1406Z TN19/1322Z



MET'MAP, your aeronautical weather chart ! - Copyright ORBIFLY December 2007 - Disclaimer

ORBIFLY MET'MAP TEAM :

Programming & Development : Alexandra Zaïnal
Concept & Development : Baudouin d'Aumeries
Co-Development & Prog : Marc-Olivier Méhu
Technical & hardware support : Manuel Goepfert

Contact : metmap@orbifly.com




SOURCES & CREDITS :

   NOAA       Earth
Advisory